Time;durP1;ratioP1;P1;durP2;ratioP2;P2;SDS_P1;SDS_P2;PMS_P1;PMS_P2;Temp;Humidity;BMP_temperature;BMP_pressure;BME280_temperature;BME280_humidity;BME280_pressure;Samples;Min_cycle;Max_cycle;Signal;HPM_P1;HPM_P2
2021/03/17 00:00:20;;;;;;;16.00;7.68;;;4.60;97.90;;;;;;5019383;28;20033;-79
2021/03/17 00:02:46;;;;;;;12.63;6.85;;;4.60;98.00;;;;;;5045967;28;20076;-79
2021/03/17 00:05:12;;;;;;;10.82;7.10;;;4.60;97.90;;;;;;5036934;28;20488;-78
2021/03/17 00:07:38;;;;;;;13.23;6.22;;;4.60;97.90;;;;;;5057192;28;20400;-79
2021/03/17 00:10:04;;;;;;;12.98;7.03;;;4.60;98.00;;;;;;5040102;28;20036;-78
2021/03/17 00:12:30;;;;;;;12.95;7.68;;;4.50;97.80;;;;;;5033122;28;20208;-79
2021/03/17 00:14:55;;;;;;;11.90;7.78;;;4.60;98.10;;;;;;5041967;28;20044;-79
2021/03/17 00:17:21;;;;;;;9.52;6.90;;;4.50;98.00;;;;;;5030049;28;20053;-79
2021/03/17 00:19:46;;;;;;;12.13;7.68;;;4.50;97.90;;;;;;5046711;28;20120;-78
2021/03/17 00:22:12;;;;;;;15.32;7.65;;;4.60;97.80;;;;;;5014060;28;20102;-79
2021/03/17 00:24:37;;;;;;;16.05;8.18;;;4.50;97.90;;;;;;5053196;28;20082;-78
2021/03/17 00:27:04;;;;;;;11.40;7.82;;;4.50;98.00;;;;;;5035701;28;20029;-79
2021/03/17 00:29:29;;;;;;;13.27;8.77;;;4.50;97.90;;;;;;5027997;28;20042;-78
2021/03/17 00:31:55;;;;;;;11.52;8.25;;;4.50;98.00;;;;;;5013596;28;20033;-78
2021/03/17 00:34:20;;;;;;;11.60;8.63;;;4.50;98.20;;;;;;5018782;28;20392;-78
2021/03/17 00:36:46;;;;;;;13.93;8.02;;;4.50;98.20;;;;;;5008315;28;20037;-78
2021/03/17 00:39:11;;;;;;;13.75;8.70;;;4.50;98.10;;;;;;5009031;28;20033;-79
2021/03/17 00:41:37;;;;;;;10.65;8.23;;;4.50;98.20;;;;;;5053588;28;20499;-78
2021/03/17 00:44:02;;;;;;;14.23;9.27;;;4.50;98.10;;;;;;5024834;28;20060;-78
2021/03/17 00:46:28;;;;;;;18.50;9.90;;;4.50;98.10;;;;;;5008365;28;20396;-78
2021/03/17 00:48:53;;;;;;;12.50;8.75;;;4.40;98.10;;;;;;5027823;28;20111;-78
2021/03/17 00:51:19;;;;;;;18.50;10.02;;;4.50;98.40;;;;;;5027289;28;20090;-78
2021/03/17 00:53:44;;;;;;;13.95;9.38;;;4.40;98.10;;;;;;5018915;28;20083;-78
2021/03/17 00:56:10;;;;;;;18.40;9.45;;;4.40;98.30;;;;;;5033091;28;20104;-78
2021/03/17 00:58:35;;;;;;;16.67;9.38;;;4.40;98.30;;;;;;5039811;28;20036;-78
2021/03/17 01:01:01;;;;;;;15.27;9.25;;;4.40;98.30;;;;;;5051099;28;20116;-78
2021/03/17 01:03:26;;;;;;;20.08;9.98;;;4.40;98.30;;;;;;5025162;28;20032;-78
2021/03/17 01:05:52;;;;;;;20.27;9.68;;;4.50;98.10;;;;;;5027770;28;20032;-78
2021/03/17 01:08:17;;;;;;;14.40;8.23;;;4.40;98.10;;;;;;5022149;28;20466;-78
2021/03/17 01:10:45;;;;;;;15.95;8.32;;;4.50;98.30;;;;;;5037194;28;20031;-78
2021/03/17 01:13:10;;;;;;;11.90;7.70;;;4.50;98.10;;;;;;5026116;28;20029;-78
2021/03/17 01:15:37;;;;;;;13.10;7.40;;;4.60;97.80;;;;;;5049201;28;20032;-79
2021/03/17 01:18:05;;;;;;;17.58;9.88;;;4.60;97.70;;;;;;5007429;28;20029;-78
2021/03/17 01:20:30;;;;;;;17.25;10.35;;;4.60;97.60;;;;;;5013657;28;20078;-79
2021/03/17 01:22:56;;;;;;;18.50;12.88;;;4.50;97.70;;;;;;5022886;28;20033;-79
2021/03/17 01:25:30;;;;;;;19.77;13.27;;;4.50;97.80;;;;;;5025135;28;20033;-78
2021/03/17 01:27:55;;;;;;;19.40;10.18;;;4.50;98.10;;;;;;5008588;28;20059;-79
2021/03/17 01:30:26;;;;;;;19.00;12.02;;;4.50;98.00;;;;;;5018763;28;20069;-78
2021/03/17 01:32:52;;;;;;;19.65;11.82;;;4.50;97.90;;;;;;5009366;28;20041;-79
2021/03/17 01:35:18;;;;;;;25.48;14.68;;;4.50;97.80;;;;;;5015858;28;20091;-78
2021/03/17 01:37:43;;;;;;;26.50;15.65;;;4.40;97.90;;;;;;5012716;28;20117;-78
2021/03/17 01:40:10;;;;;;;21.10;14.65;;;4.50;98.00;;;;;;5007046;28;20040;-78
2021/03/17 01:42:36;;;;;;;23.83;15.80;;;4.40;98.10;;;;;;5006889;28;20029;-79
2021/03/17 01:45:06;;;;;;;27.00;16.65;;;4.40;98.20;;;;;;5007866;28;20047;-79
2021/03/17 01:47:32;;;;;;;27.23;13.52;;;4.30;98.40;;;;;;5029901;28;20400;-78
2021/03/17 01:49:57;;;;;;;22.20;13.70;;;4.30;98.40;;;;;;5027452;28;20079;-78
2021/03/17 01:52:23;;;;;;;21.42;13.77;;;4.30;98.30;;;;;;5032438;28;20083;-78
2021/03/17 01:54:48;;;;;;;21.92;12.82;;;4.20;98.50;;;;;;5022966;28;20033;-78
2021/03/17 01:57:14;;;;;;;18.25;12.30;;;4.30;98.70;;;;;;5030057;28;20461;-79
2021/03/17 01:59:39;;;;;;;20.58;11.95;;;4.20;98.50;;;;;;5044798;28;20036;-78
2021/03/17 02:02:06;;;;;;;16.45;10.68;;;4.20;98.60;;;;;;5026690;28;20480;-79
2021/03/17 02:04:32;;;;;;;15.93;10.57;;;4.30;98.60;;;;;;5016669;28;20034;-78
2021/03/17 02:06:57;;;;;;;19.50;11.05;;;4.30;98.80;;;;;;5025408;28;20075;-78
2021/03/17 02:09:23;;;;;;;19.88;11.55;;;4.30;98.70;;;;;;5014573;28;20024;-78
2021/03/17 02:11:54;;;;;;;18.00;10.50;;;4.30;98.60;;;;;;5027527;28;20035;-78
2021/03/17 02:14:42;;;;;;;25.60;15.32;;;4.30;98.50;;;;;;5005198;28;20200;-78
2021/03/17 02:17:12;;;;;;;29.05;16.75;;;4.30;98.50;;;;;;5031966;28;20033;-78
2021/03/17 02:19:55;;;;;;;26.65;17.08;;;4.30;98.80;;;;;;5005608;28;20033;-78
2021/03/17 02:22:38;;;;;;;28.48;19.38;;;4.30;99.10;;;;;;5019215;28;20037;-78
2021/03/17 02:25:06;;;;;;;30.75;17.45;;;4.20;98.90;;;;;;5053420;28;20443;-78
2021/03/17 02:27:55;;;;;;;36.20;21.88;;;4.30;98.90;;;;;;5048536;28;20579;-78
2021/03/17 02:30:45;;;;;;;31.42;17.10;;;4.30;98.80;;;;;;5043743;28;20155;-78
2021/03/17 02:33:49;;;;;;;32.75;18.20;;;4.30;98.90;;;;;;5040623;28;20123;-78
2021/03/17 02:36:33;;;;;;;37.83;24.52;;;4.30;98.90;;;;;;5047698;28;20471;-78
2021/03/17 02:39:06;;;;;;;44.13;24.70;;;4.20;99.10;;;;;;5055688;28;20425;-78
2021/03/17 02:41:32;;;;;;;34.80;19.05;;;4.20;99.10;;;;;;5036535;28;20064;-78
2021/03/17 02:43:58;;;;;;;35.63;22.35;;;4.20;99.10;;;;;;5011345;28;20043;-78
2021/03/17 02:46:25;;;;;;;35.40;21.25;;;4.10;99.20;;;;;;5023295;28;20037;-78
2021/03/17 02:49:06;;;;;;;39.50;24.35;;;4.10;99.20;;;;;;5007649;28;20041;-78
2021/03/17 02:51:33;;;;;;;31.70;20.08;;;4.10;99.30;;;;;;5039095;28;20099;-78
2021/03/17 02:54:00;;;;;;;29.27;16.48;;;4.00;99.30;;;;;;5028744;28;20033;-78
2021/03/17 02:56:26;;;;;;;22.70;13.05;;;4.00;99.30;;;;;;5027698;28;20037;-78
2021/03/17 02:58:51;;;;;;;24.20;16.75;;;4.10;99.30;;;;;;5027740;28;20170;-78
2021/03/17 03:01:17;;;;;;;27.92;19.15;;;4.10;99.10;;;;;;5029244;28;20021;-78
2021/03/17 03:03:43;;;;;;;28.25;20.50;;;4.00;99.10;;;;;;5012191;28;20173;-78
2021/03/17 03:06:08;;;;;;;30.55;17.02;;;4.00;99.30;;;;;;5020932;28;20029;-78
2021/03/17 03:08:35;;;;;;;23.48;15.15;;;4.00;99.30;;;;;;5025032;28;20032;-78
2021/03/17 03:11:01;;;;;;;21.98;13.65;;;4.00;99.10;;;;;;5007789;28;20082;-78
2021/03/17 03:13:27;;;;;;;21.25;14.07;;;4.10;99.10;;;;;;5008121;28;20033;-78
2021/03/17 03:15:53;;;;;;;19.58;11.88;;;4.00;99.10;;;;;;5021614;28;20111;-78
2021/03/17 03:18:19;;;;;;;18.67;13.10;;;4.00;99.10;;;;;;5016481;28;20116;-78
2021/03/17 03:20:44;;;;;;;20.38;15.57;;;4.00;99.00;;;;;;5037043;28;20557;-78
2021/03/17 03:23:10;;;;;;;18.80;12.73;;;4.00;99.10;;;;;;5018757;28;20091;-78
2021/03/17 03:25:35;;;;;;;23.80;17.55;;;4.00;99.10;;;;;;5053479;28;20021;-77
2021/03/17 03:28:11;;;;;;;20.67;14.65;;;3.90;99.20;;;;;;5026759;28;20035;-77
2021/03/17 03:30:36;;;;;;;24.98;19.33;;;3.80;99.30;;;;;;5033386;28;20069;-78
2021/03/17 03:33:02;;;;;;;25.42;18.00;;;3.90;99.10;;;;;;5019705;28;20475;-78
2021/03/17 03:35:27;;;;;;;23.27;15.75;;;3.90;99.20;;;;;;5015572;28;20034;-77
2021/03/17 03:37:53;;;;;;;21.65;14.27;;;3.90;99.10;;;;;;5031625;28;20480;-77
2021/03/17 03:40:19;;;;;;;22.02;14.48;;;4.00;98.80;;;;;;5048023;28;20029;-77
2021/03/17 03:42:45;;;;;;;22.58;16.83;;;4.00;98.60;;;;;;5051769;28;20028;-77
2021/03/17 03:45:13;;;;;;;16.33;12.88;;;3.90;99.00;;;;;;5024741;28;20071;-77
2021/03/17 03:47:40;;;;;;;18.38;11.45;;;3.80;99.30;;;;;;5019605;28;20029;-77
2021/03/17 03:50:08;;;;;;;14.27;11.65;;;3.80;99.20;;;;;;5021285;28;20037;-77
2021/03/17 03:52:40;;;;;;;15.05;11.52;;;3.90;99.20;;;;;;5014640;28;20039;-77
2021/03/17 03:55:27;;;;;;;15.88;10.00;;;3.80;99.20;;;;;;5019007;28;20124;-77
2021/03/17 03:57:53;;;;;;;14.70;10.35;;;3.80;99.10;;;;;;5029211;28;20032;-77
2021/03/17 04:00:23;;;;;;;13.93;9.30;;;3.90;99.10;;;;;;5033555;28;20088;-78
2021/03/17 04:02:52;;;;;;;14.52;9.55;;;3.90;98.80;;;;;;5034701;28;20415;-77
2021/03/17 04:05:23;;;;;;;9.80;6.93;;;3.90;98.80;;;;;;5019029;28;20119;-77
2021/03/17 04:07:49;;;;;;;11.15;8.48;;;4.00;98.60;;;;;;5036143;28;20098;-77
2021/03/17 04:10:15;;;;;;;11.40;8.27;;;4.00;98.60;;;;;;5028213;28;20050;-77
2021/03/17 04:12:41;;;;;;;12.30;8.30;;;3.90;98.50;;;;;;5054369;28;20497;-77
2021/03/17 04:15:07;;;;;;;9.77;6.57;;;4.00;98.50;;;;;;5019862;28;20040;-77
2021/03/17 04:17:55;;;;;;;7.75;5.78;;;3.90;98.50;;;;;;5016608;28;20097;-77
2021/03/17 04:20:23;;;;;;;6.95;4.50;;;3.90;98.60;;;;;;5035011;28;20040;-78
2021/03/17 04:22:49;;;;;;;4.47;3.88;;;4.00;98.40;;;;;;5022786;28;20105;-77
2021/03/17 04:25:16;;;;;;;3.42;3.00;;;4.00;98.50;;;;;;5036751;28;20482;-77
2021/03/17 04:27:45;;;;;;;6.43;4.82;;;3.90;98.60;;;;;;5034161;28;20426;-77
2021/03/17 04:30:11;;;;;;;7.80;4.70;;;4.00;98.60;;;;;;5035928;28;20473;-77
2021/03/17 04:32:37;;;;;;;6.60;5.13;;;3.90;98.50;;;;;;5056855;28;20036;-77
2021/03/17 04:35:03;;;;;;;7.10;6.10;;;3.90;98.40;;;;;;5053683;28;20032;-77
2021/03/17 04:37:29;;;;;;;5.55;4.95;;;3.90;98.40;;;;;;5036872;28;20026;-77
2021/03/17 04:39:55;;;;;;;6.80;5.18;;;4.00;98.40;;;;;;5053186;28;20108;-77
2021/03/17 04:42:20;;;;;;;6.50;5.38;;;4.00;98.40;;;;;;5017212;28;20106;-78
2021/03/17 04:44:46;;;;;;;5.75;4.75;;;3.90;98.40;;;;;;5039140;28;20036;-77
2021/03/17 04:47:12;;;;;;;4.57;3.92;;;4.00;98.30;;;;;;5050370;28;20028;-77
2021/03/17 04:49:40;;;;;;;4.70;3.85;;;3.90;98.30;;;;;;5034635;28;20029;-77
2021/03/17 04:52:05;;;;;;;4.05;3.38;;;3.90;98.40;;;;;;5040795;28;20107;-77
2021/03/17 04:54:31;;;;;;;3.75;3.00;;;3.90;98.60;;;;;;5007952;28;20124;-77
2021/03/17 04:56:56;;;;;;;4.78;3.38;;;4.00;98.40;;;;;;5019643;28;20086;-77
2021/03/17 04:59:22;;;;;;;5.18;4.45;;;3.90;98.40;;;;;;5015347;28;20107;-77
2021/03/17 05:01:48;;;;;;;4.65;3.83;;;3.90;98.50;;;;;;5035925;28;20033;-77
2021/03/17 05:04:13;;;;;;;8.68;4.38;;;4.00;98.30;;;;;;5035662;28;20400;-77
2021/03/17 05:06:40;;;;;;;5.25;4.15;;;3.90;98.20;;;;;;5035789;28;20045;-77
2021/03/17 05:09:05;;;;;;;7.18;5.07;;;4.00;98.10;;;;;;5033087;28;20518;-77
2021/03/17 05:11:31;;;;;;;7.95;5.45;;;3.90;98.30;;;;;;5011367;28;20033;-77
2021/03/17 05:13:56;;;;;;;8.48;6.28;;;4.00;98.20;;;;;;5053915;28;20050;-77
2021/03/17 05:16:22;;;;;;;9.38;7.25;;;3.90;98.50;;;;;;4338280;28;10000509;-77
2021/03/17 05:18:48;;;;;;;10.20;6.63;;;3.90;98.40;;;;;;5036742;28;20025;-77
2021/03/17 05:21:14;;;;;;;11.80;8.52;;;3.90;98.30;;;;;;5053898;28;20029;-77
2021/03/17 05:23:39;;;;;;;12.95;8.50;;;3.90;98.30;;;;;;5041801;28;20370;-77
2021/03/17 05:26:06;;;;;;;12.35;9.27;;;3.90;98.50;;;;;;5052925;28;20052;-78
2021/03/17 05:28:31;;;;;;;10.93;7.82;;;3.90;98.50;;;;;;5037840;28;20029;-77
2021/03/17 05:30:57;;;;;;;9.63;7.68;;;4.00;98.50;;;;;;5033490;28;20090;-77
2021/03/17 05:33:25;;;;;;;14.10;10.93;;;4.00;98.50;;;;;;5031330;28;20251;-77
2021/03/17 05:35:51;;;;;;;14.35;11.13;;;4.00;98.60;;;;;;5032756;28;20403;-77
2021/03/17 05:38:17;;;;;;;12.75;9.52;;;4.00;98.70;;;;;;5030680;28;20028;-78
2021/03/17 05:40:42;;;;;;;16.15;10.43;;;4.00;98.60;;;;;;5016057;28;20036;-77
2021/03/17 05:43:08;;;;;;;10.38;6.63;;;4.00;98.40;;;;;;5020890;28;20358;-77
2021/03/17 05:45:35;;;;;;;16.48;10.40;;;4.00;98.30;;;;;;5016455;28;20040;-77
2021/03/17 05:48:01;;;;;;;17.23;11.30;;;4.00;98.50;;;;;;5054296;28;20070;-77
2021/03/17 05:50:26;;;;;;;18.40;11.45;;;4.00;98.60;;;;;;5023683;28;20029;-77
2021/03/17 05:52:52;;;;;;;23.25;17.00;;;4.00;98.40;;;;;;5026442;28;20020;-77
2021/03/17 05:55:23;;;;;;;30.08;18.58;;;3.90;99.00;;;;;;5036265;28;20033;-77
2021/03/17 05:57:49;;;;;;;17.48;10.73;;;3.90;99.10;;;;;;5031668;28;20089;-77
2021/03/17 06:00:17;;;;;;;26.25;18.50;;;3.90;99.00;;;;;;5026677;28;20117;-76
2021/03/17 06:02:42;;;;;;;22.10;15.63;;;4.00;98.90;;;;;;5025456;28;20547;-77
2021/03/17 06:05:09;;;;;;;20.55;14.70;;;3.90;99.20;;;;;;5033778;28;20108;-78
2021/03/17 06:07:48;;;;;;;22.98;14.73;;;4.00;98.90;;;;;;5035683;28;20480;-77
2021/03/17 06:10:13;;;;;;;16.67;8.82;;;4.00;98.80;;;;;;5060729;28;20041;-77
2021/03/17 06:12:39;;;;;;;19.40;13.40;;;4.00;98.80;;;;;;5051958;28;20096;-77
2021/03/17 06:15:06;;;;;;;19.83;15.82;;;4.00;98.80;;;;;;5032701;28;20465;-78
2021/03/17 06:17:33;;;;;;;20.23;12.32;;;4.00;98.90;;;;;;5019678;28;20178;-78
2021/03/17 06:20:02;;;;;;;18.80;13.30;;;4.00;99.00;;;;;;5018630;28;20048;-77
2021/03/17 06:22:28;;;;;;;19.58;14.23;;;4.10;99.00;;;;;;5013885;28;20043;-77
2021/03/17 06:24:53;;;;;;;19.58;16.10;;;4.10;98.70;;;;;;5046492;28;20025;-78
2021/03/17 06:27:20;;;;;;;17.02;11.93;;;4.10;98.80;;;;;;5008586;28;20064;-78
2021/03/17 06:29:45;;;;;;;20.17;15.93;;;4.00;99.10;;;;;;5018210;28;20044;-78
2021/03/17 06:32:11;;;;;;;20.20;13.32;;;4.00;99.40;;;;;;5037805;28;20155;-77
2021/03/17 06:34:47;;;;;;;21.60;14.45;;;4.00;99.50;;;;;;5015802;28;20447;-77
2021/03/17 06:37:13;;;;;;;24.75;17.77;;;4.00;99.40;;;;;;5023855;28;20036;-76
2021/03/17 06:39:38;;;;;;;21.40;15.90;;;4.00;99.50;;;;;;5012974;28;20481;-78
2021/03/17 06:42:04;;;;;;;19.63;16.75;;;4.00;99.60;;;;;;5012431;28;20687;-77
2021/03/17 06:44:30;;;;;;;19.48;15.98;;;4.00;99.70;;;;;;5040712;28;20033;-77
2021/03/17 06:47:21;;;;;;;18.95;13.32;;;4.00;99.80;;;;;;5026614;28;20488;-77
2021/03/17 06:49:51;;;;;;;7.80;4.50;;;3.90;99.70;;;;;;5026631;28;20119;-77
2021/03/17 06:52:36;;;;;;;5.03;3.38;;;3.90;99.50;;;;;;5032214;28;20033;-77
2021/03/17 06:55:09;;;;;;;2.50;2.10;;;3.90;99.50;;;;;;5045431;28;20041;-78
2021/03/17 06:57:35;;;;;;;5.97;2.40;;;3.80;99.50;;;;;;5020461;28;20045;-77
2021/03/17 07:00:25;;;;;;;4.97;2.05;;;3.80;99.50;;;;;;5010464;28;20042;-78
2021/03/17 07:02:55;;;;;;;2.33;1.65;;;3.80;99.40;;;;;;5045406;28;20025;-78
2021/03/17 07:05:35;;;;;;;5.20;2.42;;;3.80;99.50;;;;;;5050341;28;20108;-77
2021/03/17 07:08:02;;;;;;;4.10;2.20;;;3.80;99.50;;;;;;5012327;28;20319;-78
2021/03/17 07:10:34;;;;;;;9.45;2.10;;;3.80;99.80;;;;;;5048460;28;20037;-78
2021/03/17 07:13:02;;;;;;;5.75;2.38;;;3.80;99.60;;;;;;5051999;28;20097;-78
2021/03/17 07:15:27;;;;;;;3.38;1.90;;;3.90;99.50;;;;;;5029219;28;20033;-77
2021/03/17 07:18:13;;;;;;;6.80;2.20;;;4.00;99.60;;;;;;5026870;28;20041;-77
2021/03/17 07:20:40;;;;;;;9.90;2.92;;;4.00;99.80;;;;;;5042410;28;20039;-78
2021/03/17 07:23:41;;;;;;;4.63;2.13;;;4.10;99.80;;;;;;5012075;28;20057;-78
2021/03/17 07:26:27;;;;;;;3.60;1.80;;;4.20;99.70;;;;;;5036134;28;20048;-78
2021/03/17 07:29:07;;;;;;;5.57;1.95;;;4.20;99.90;;;;;;5028495;28;20111;-77
2021/03/17 07:31:40;;;;;;;5.50;2.17;;;4.20;99.70;;;;;;5014545;28;20026;-77
2021/03/17 07:34:19;;;;;;;4.15;2.13;;;4.30;99.90;;;;;;5010240;28;20040;-78
2021/03/17 07:36:59;;;;;;;7.85;3.38;;;4.30;99.70;;;;;;5015494;28;20126;-78
2021/03/17 07:39:34;;;;;;;7.50;3.35;;;4.40;99.80;;;;;;5010112;28;20170;-77
2021/03/17 07:42:00;;;;;;;4.70;2.43;;;4.60;99.90;;;;;;5015125;28;20041;-78
2021/03/17 07:44:26;;;;;;;7.57;2.70;;;4.70;99.90;;;;;;5009728;28;20596;-78
2021/03/17 07:46:57;;;;;;;5.40;2.20;;;4.80;99.90;;;;;;5035663;28;20468;-77
2021/03/17 07:49:26;;;;;;;8.45;3.13;;;4.80;99.80;;;;;;5042334;28;20034;-78
2021/03/17 07:51:52;;;;;;;11.77;3.15;;;4.90;99.90;;;;;;5010788;28;20025;-78
2021/03/17 07:54:20;;;;;;;11.50;3.55;;;4.90;99.90;;;;;;5027188;28;20171;-77
2021/03/17 07:56:48;;;;;;;12.40;4.45;;;5.00;99.90;;;;;;5010714;28;20499;-78
2021/03/17 07:59:13;;;;;;;8.88;3.40;;;5.00;99.90;;;;;;5015084;28;20100;-78
2021/03/17 08:01:39;;;;;;;12.63;3.83;;;5.00;99.90;;;;;;5049855;28;20037;-77
2021/03/17 08:04:06;;;;;;;7.55;3.40;;;5.00;99.90;;;;;;5011100;28;20495;-77
2021/03/17 08:06:31;;;;;;;7.47;3.70;;;5.10;99.90;;;;;;5032603;28;20037;-78
2021/03/17 08:08:57;;;;;;;6.72;2.97;;;5.20;99.90;;;;;;5011286;28;20055;-77
2021/03/17 08:11:23;;;;;;;10.48;2.95;;;5.30;99.90;;;;;;5010242;28;20033;-78
2021/03/17 08:13:49;;;;;;;7.32;3.15;;;5.40;99.90;;;;;;5008957;28;20037;-78
2021/03/17 08:16:22;;;;;;;14.75;3.97;;;5.50;99.90;;;;;;5013141;28;20378;-77
2021/03/17 08:18:49;;;;;;;4.82;2.28;;;5.60;99.90;;;;;;5028232;28;20037;-78
2021/03/17 08:21:35;;;;;;;9.88;1.55;;;5.80;99.90;;;;;;5031246;28;20070;-78
2021/03/17 08:24:00;;;;;;;6.73;2.10;;;5.80;99.90;;;;;;5031616;28;20499;-77
2021/03/17 08:26:26;;;;;;;5.47;1.60;;;5.90;99.90;;;;;;5010047;28;20245;-78
2021/03/17 08:28:52;;;;;;;10.15;2.88;;;6.00;99.90;;;;;;5049670;28;20033;-78
2021/03/17 08:31:36;;;;;;;6.95;2.33;;;6.00;99.80;;;;;;5025307;28;20758;-77
2021/03/17 08:34:20;;;;;;;7.00;2.58;;;6.10;99.90;;;;;;5044276;28;20040;-77
2021/03/17 08:36:46;;;;;;;6.05;2.78;;;6.20;99.90;;;;;;5039241;28;20057;-78
2021/03/17 08:39:11;;;;;;;6.05;3.40;;;6.20;99.90;;;;;;5032619;28;20068;-78
2021/03/17 08:41:37;;;;;;;7.72;2.88;;;6.10;99.90;;;;;;5049418;28;20060;-78
2021/03/17 08:44:17;;;;;;;6.40;2.55;;;6.00;99.80;;;;;;5051132;28;20036;-77
2021/03/17 08:46:43;;;;;;;7.95;2.00;;;5.90;99.70;;;;;;5053582;28;20029;-77
2021/03/17 08:49:13;;;;;;;5.43;2.13;;;5.80;99.10;;;;;;5019513;28;20128;-76
2021/03/17 08:51:47;;;;;;;5.07;2.45;;;5.70;99.20;;;;;;5033768;28;20037;-76
2021/03/17 08:54:31;;;;;;;2.83;2.00;;;5.60;99.10;;;;;;5053075;28;20400;-78
2021/03/17 08:57:09;;;;;;;5.07;1.88;;;5.60;99.20;;;;;;5051687;28;20113;-77
2021/03/17 08:59:42;;;;;;;4.25;1.42;;;5.60;99.20;;;;;;5034218;28;20655;-76
2021/03/17 09:02:30;;;;;;;2.45;1.23;;;5.40;99.20;;;;;;5014256;28;20033;-75
2021/03/17 09:04:56;;;;;;;2.35;0.88;;;5.20;98.90;;;;;;5037142;28;20056;-77
2021/03/17 09:07:23;;;;;;;2.65;1.23;;;4.80;98.10;;;;;;5052177;28;20052;-78
2021/03/17 09:09:59;;;;;;;1.63;1.20;;;4.50;98.20;;;;;;5057908;28;20032;-77
2021/03/17 09:12:24;;;;;;;5.47;1.80;;;4.40;98.60;;;;;;5020217;28;20040;-77
2021/03/17 09:14:50;;;;;;;2.70;1.73;;;4.40;98.50;;;;;;5052035;28;20236;-77
2021/03/17 09:17:24;;;;;;;4.07;1.92;;;4.40;98.70;;;;;;5035145;28;20129;-77
2021/03/17 09:20:05;;;;;;;4.57;2.17;;;4.40;98.80;;;;;;5010377;28;20028;-77
2021/03/17 09:22:42;;;;;;;5.20;2.60;;;4.50;99.10;;;;;;5036054;28;20511;-77
2021/03/17 09:25:27;;;;;;;2.53;2.15;;;4.60;99.40;;;;;;5028283;28;20161;-77
2021/03/17 09:27:53;;;;;;;4.97;2.67;;;4.70;99.40;;;;;;5052398;28;20391;-77
2021/03/17 09:30:20;;;;;;;4.68;3.08;;;4.80;99.40;;;;;;5035007;28;20432;-77
2021/03/17 09:32:45;;;;;;;6.07;2.88;;;4.90;99.60;;;;;;5022054;28;20058;-77
2021/03/17 09:35:12;;;;;;;6.50;3.03;;;5.00;99.70;;;;;;5019001;28;20508;-77
2021/03/17 09:37:37;;;;;;;7.47;3.50;;;5.10;99.90;;;;;;5038578;28;20540;-77
2021/03/17 09:40:05;;;;;;;6.05;3.33;;;5.20;99.90;;;;;;5033819;28;20060;-77
2021/03/17 09:42:36;;;;;;;4.95;3.15;;;5.30;99.80;;;;;;5036219;28;20162;-77
2021/03/17 09:45:03;;;;;;;6.35;4.07;;;5.30;99.80;;;;;;5031190;28;20120;-77
2021/03/17 09:47:29;;;;;;;5.68;2.72;;;5.30;99.70;;;;;;5012175;28;20034;-77
2021/03/17 09:49:55;;;;;;;5.43;2.25;;;5.30;99.70;;;;;;5032979;28;20038;-77
2021/03/17 09:52:20;;;;;;;7.63;2.22;;;5.20;99.80;;;;;;5036518;28;20033;-78
2021/03/17 09:54:46;;;;;;;2.35;1.05;;;5.20;99.80;;;;;;5016516;28;20400;-77
2021/03/17 09:57:11;;;;;;;2.28;0.90;;;5.10;99.60;;;;;;5033055;28;20029;-77
2021/03/17 09:59:40;;;;;;;5.90;1.08;;;5.00;99.60;;;;;;5043383;28;20025;-77
2021/03/17 10:02:21;;;;;;;7.18;1.23;;;5.00;99.70;;;;;;5044180;28;20083;-77
2021/03/17 10:04:51;;;;;;;2.45;1.02;;;5.10;99.80;;;;;;5035708;28;20052;-77
2021/03/17 10:07:21;;;;;;;5.07;1.10;;;5.20;99.90;;;;;;5028791;28;20029;-78
2021/03/17 10:09:46;;;;;;;1.80;1.02;;;5.40;99.90;;;;;;5067543;28;20028;-77
2021/03/17 10:12:16;;;;;;;5.18;1.10;;;5.50;99.90;;;;;;5033503;28;20048;-78
2021/03/17 10:14:52;;;;;;;5.28;1.90;;;5.60;99.80;;;;;;5046912;28;20044;-77
2021/03/17 10:17:18;;;;;;;4.10;1.73;;;5.80;99.90;;;;;;5038179;28;20033;-77
2021/03/17 10:19:49;;;;;;;2.92;1.40;;;6.00;99.90;;;;;;5018398;28;20024;-76
2021/03/17 10:22:18;;;;;;;2.55;1.10;;;6.20;99.90;;;;;;5032957;28;20044;-78
2021/03/17 10:24:48;;;;;;;5.72;1.27;;;6.40;99.90;;;;;;5032611;28;20043;-78
2021/03/17 10:27:21;;;;;;;2.70;1.27;;;6.60;99.90;;;;;;5037388;28;20029;-77
2021/03/17 10:29:47;;;;;;;2.38;1.50;;;6.70;99.10;;;;;;5040358;28;20032;-77
2021/03/17 10:32:15;;;;;;;7.45;1.73;;;6.90;99.90;;;;;;5029729;28;20055;-77
2021/03/17 10:34:40;;;;;;;5.18;1.67;;;7.00;99.90;;;;;;5027393;28;20029;-78
2021/03/17 10:37:10;;;;;;;5.65;1.77;;;6.90;99.90;;;;;;5042453;28;20036;-79
2021/03/17 10:39:36;;;;;;;4.35;1.95;;;6.80;99.60;;;;;;5019575;28;20037;-79
2021/03/17 10:42:02;;;;;;;7.10;2.10;;;6.80;99.60;;;;;;5054817;28;20031;-79
2021/03/17 10:44:32;;;;;;;6.88;2.22;;;6.80;99.60;;;;;;5046064;28;20096;-78
2021/03/17 10:47:07;;;;;;;4.63;2.08;;;6.80;99.80;;;;;;5039096;28;20033;-78
2021/03/17 10:49:35;;;;;;;6.93;2.28;;;6.80;99.60;;;;;;5044912;28;20040;-78
2021/03/17 10:52:02;;;;;;;5.15;1.60;;;6.90;99.80;;;;;;5058517;28;20036;-79
2021/03/17 10:54:33;;;;;;;5.32;1.45;;;6.90;99.10;;;;;;5039535;28;20052;-78
2021/03/17 10:56:59;;;;;;;6.20;1.50;;;7.00;99.40;;;;;;5059381;28;20312;-78
2021/03/17 10:59:35;;;;;;;4.10;1.13;;;7.00;98.60;;;;;;5027192;28;20032;-78
2021/03/17 11:02:25;;;;;;;6.07;0.95;;;6.90;98.50;;;;;;5037308;28;20182;-78
2021/03/17 11:05:16;;;;;;;6.60;1.15;;;6.90;98.70;;;;;;5055389;28;20508;-78
2021/03/17 11:07:49;;;;;;;3.08;0.85;;;6.90;98.10;;;;;;5040980;28;20041;-78
2021/03/17 11:10:49;;;;;;;2.97;1.40;;;6.90;97.20;;;;;;5037530;28;20033;-78
2021/03/17 11:13:16;;;;;;;4.32;1.50;;;6.90;97.60;;;;;;5019912;28;20511;-78
2021/03/17 11:15:48;;;;;;;3.25;0.85;;;6.70;97.40;;;;;;5071309;28;20045;-78
2021/03/17 11:18:33;;;;;;;7.53;1.08;;;6.70;97.40;;;;;;5041404;28;20032;-78
2021/03/17 11:21:06;;;;;;;2.15;0.77;;;6.70;97.80;;;;;;5036633;28;20032;-78
2021/03/17 11:23:34;;;;;;;2.22;0.93;;;6.70;97.90;;;;;;5024899;28;20142;-78
2021/03/17 11:26:00;;;;;;;5.00;1.00;;;6.60;97.70;;;;;;5043906;28;20054;-78
2021/03/17 11:28:27;;;;;;;2.97;1.27;;;6.60;98.00;;;;;;5020930;28;20033;-78
2021/03/17 11:30:59;;;;;;;6.80;1.95;;;6.40;97.50;;;;;;5041111;28;20047;-78
2021/03/17 11:33:25;;;;;;;10.52;2.15;;;6.40;97.70;;;;;;5043241;28;20029;-78
2021/03/17 11:35:52;;;;;;;2.28;1.10;;;6.40;97.40;;;;;;5060647;28;20040;-78
2021/03/17 11:38:18;;;;;;;4.63;1.63;;;6.40;97.70;;;;;;5041248;28;20046;-78
2021/03/17 11:40:44;;;;;;;6.63;1.08;;;6.30;97.20;;;;;;5028622;28;20075;-78
2021/03/17 11:43:11;;;;;;;4.00;1.30;;;6.30;97.30;;;;;;5044658;28;20029;-77
2021/03/17 11:45:37;;;;;;;5.85;1.75;;;6.40;97.60;;;;;;5037586;28;20033;-78
2021/03/17 11:48:03;;;;;;;6.25;1.80;;;6.50;98.10;;;;;;5038741;28;20051;-78
2021/03/17 11:50:28;;;;;;;2.78;1.33;;;6.70;98.30;;;;;;5011039;28;20025;-78
2021/03/17 11:52:54;;;;;;;2.85;1.70;;;6.90;98.30;;;;;;5036677;28;20107;-78
2021/03/17 11:55:20;;;;;;;4.60;1.80;;;7.00;98.40;;;;;;5017918;28;20033;-79
2021/03/17 11:57:46;;;;;;;4.75;1.33;;;7.10;97.70;;;;;;5031043;28;20075;-78
2021/03/17 12:00:12;;;;;;;5.80;1.30;;;7.30;98.50;;;;;;5022659;28;20492;-78
2021/03/17 12:02:37;;;;;;;7.05;1.83;;;7.50;98.00;;;;;;5017632;28;20464;-78
2021/03/17 12:05:04;;;;;;;7.00;1.15;;;7.60;98.30;;;;;;5041945;28;20091;-78
2021/03/17 12:07:29;;;;;;;5.95;1.05;;;7.70;97.00;;;;;;5040903;28;20036;-78
2021/03/17 12:09:55;;;;;;;4.38;0.93;;;7.90;97.90;;;;;;5037645;28;20032;-78
2021/03/17 12:12:21;;;;;;;9.55;1.48;;;8.10;97.90;;;;;;5051586;28;20441;-78
2021/03/17 12:14:47;;;;;;;5.28;1.40;;;8.20;97.70;;;;;;5021871;28;20032;-78
2021/03/17 12:17:12;;;;;;;4.80;1.10;;;8.40;97.40;;;;;;5038234;28;20041;-78
2021/03/17 12:19:38;;;;;;;6.20;1.08;;;8.40;96.20;;;;;;5053754;28;20029;-78
2021/03/17 12:22:03;;;;;;;3.78;1.10;;;8.50;96.50;;;;;;5042638;28;20041;-78
2021/03/17 12:24:29;;;;;;;3.60;1.23;;;8.40;96.60;;;;;;5039879;28;20024;-78
2021/03/17 12:26:54;;;;;;;4.68;1.30;;;8.30;94.80;;;;;;5038254;28;20033;-78
2021/03/17 12:29:20;;;;;;;3.95;1.40;;;8.40;95.60;;;;;;5048377;28;20045;-78
2021/03/17 12:31:45;;;;;;;6.82;1.17;;;8.50;96.10;;;;;;5027144;28;20119;-79
2021/03/17 12:34:11;;;;;;;4.68;1.70;;;8.50;95.50;;;;;;5034302;28;20116;-78
2021/03/17 12:36:36;;;;;;;2.40;1.00;;;8.50;95.50;;;;;;5021508;28;20029;-78
2021/03/17 12:39:04;;;;;;;5.03;1.00;;;8.60;95.90;;;;;;5038205;28;20532;-78
2021/03/17 12:41:29;;;;;;;5.13;1.95;;;8.70;95.60;;;;;;5012537;28;20112;-78
2021/03/17 12:43:55;;;;;;;3.03;1.10;;;8.80;96.30;;;;;;5038415;28;20120;-78
2021/03/17 12:46:21;;;;;;;1.55;0.70;;;8.90;95.70;;;;;;5029938;28;20024;-78
2021/03/17 12:48:46;;;;;;;4.50;1.40;;;9.00;95.00;;;;;;5040747;28;20388;-77
2021/03/17 12:51:12;;;;;;;4.43;1.52;;;9.00;93.80;;;;;;5040284;28;20025;-78
2021/03/17 12:53:37;;;;;;;7.72;1.05;;;9.10;94.70;;;;;;5043831;28;20064;-77
2021/03/17 12:56:04;;;;;;;6.72;1.30;;;9.20;94.50;;;;;;5044032;28;20066;-77